C Gables, Florida
Current Conditions -  °F | °C
As of 3:53 PM on Sunday 21 Dec 2014 (Local Time) from KTMB Reporting Station
Clear Clear  
Wind Chill: 77°   Ceiling: Unl
Heat Index: 79°   Visibility: 10mi
Dew Point: 64°   Wind: 10mph
Humidity: 64%   Direction: 120°ESE
Pressure: 30.03"   Gusts: NA
Location:  25.6371°N, 80.3102°W
Report Text: KTMB 212053Z 12009KT 10SM CLR 25/18 A3003 RMK AO2 SLP167 T02500178 55015 $
Loading
Personal Weather Stations






























Interactive Weather Map New forecast layout! Learn more

10-Day Weather Forecast

Advertisements
Track Severe Weather on mobile